createdAt,value
2024-02-02T00:01:23.236Z,83.60
2024-02-02T00:03:51.735Z,80.10
2024-02-02T00:06:20.167Z,87.90
2024-02-02T00:08:48.315Z,86.20
2024-02-02T00:11:19.422Z,90.70
2024-02-02T00:13:50.816Z,78.60
2024-02-02T00:16:18.857Z,78.00
2024-02-02T00:18:47.455Z,78.20
2024-02-02T00:21:16.468Z,72.80
2024-02-02T00:23:44.721Z,71.30
2024-02-02T00:26:12.825Z,72.00
2024-02-02T00:28:48.934Z,68.70
2024-02-02T00:31:22.829Z,67.10
2024-02-02T00:33:51.111Z,83.70
2024-02-02T00:36:19.233Z,75.70
2024-02-02T00:38:47.233Z,72.40
2024-02-02T00:41:17.279Z,77.70
2024-02-02T00:43:45.347Z,77.20
2024-02-02T00:46:13.461Z,75.80
2024-02-02T00:48:44.069Z,75.10
2024-02-02T00:51:12.358Z,76.60
2024-02-02T00:53:46.119Z,67.90
2024-02-02T00:56:14.874Z,65.30
2024-02-02T00:58:43.010Z,71.90
2024-02-02T01:02:37.990Z,71.60
2024-02-02T01:05:06.746Z,76.00
2024-02-02T01:07:35.162Z,73.90
2024-02-02T01:10:07.211Z,72.10
2024-02-02T01:12:36.653Z,74.70
2024-02-02T01:15:05.404Z,77.90
2024-02-02T01:17:33.717Z,70.90
2024-02-02T01:20:05.054Z,67.30
2024-02-02T01:22:34.472Z,64.50
2024-02-02T01:25:02.658Z,75.60
2024-02-02T01:27:30.867Z,66.70
2024-02-02T01:29:59.007Z,71.40
2024-02-02T01:32:27.143Z,69.70
2024-02-02T01:38:16.487Z,72.90
2024-02-02T01:40:45.303Z,72.30
2024-02-02T01:43:14.201Z,75.00
2024-02-02T01:45:42.372Z,76.00
2024-02-02T01:48:10.675Z,72.60
2024-02-02T01:50:38.925Z,73.60
2024-02-02T01:53:07.236Z,77.50
2024-02-02T01:55:35.809Z,73.80
2024-02-02T01:58:04.147Z,74.00
2024-02-02T02:00:32.692Z,74.00
2024-02-02T02:03:01.311Z,82.10
2024-02-02T02:05:29.602Z,77.50
2024-02-02T02:07:57.680Z,74.30
2024-02-02T02:10:26.426Z,77.60
2024-02-02T02:12:54.666Z,75.80
2024-02-02T02:15:25.004Z,78.10
2024-02-02T02:17:53.505Z,79.80
2024-02-02T02:20:27.521Z,81.40
2024-02-02T02:22:55.973Z,71.50
2024-02-02T02:25:24.088Z,76.30
2024-02-02T02:27:52.195Z,74.70
2024-02-02T02:30:20.479Z,64.30
2024-02-02T02:32:48.754Z,78.10
2024-02-02T02:35:17.196Z,78.50
2024-02-02T02:37:45.218Z,80.70
2024-02-02T02:40:13.888Z,77.90
2024-02-02T02:42:42.038Z,62.70
2024-02-02T02:45:10.200Z,69.70
2024-02-02T02:47:38.640Z,58.60
2024-02-02T02:50:07.385Z,58.20
2024-02-02T02:52:36.013Z,51.90
2024-02-02T02:55:06.146Z,47.00
2024-02-02T02:57:34.473Z,48.20
2024-02-02T03:00:03.786Z,40.90
2024-02-02T03:02:32.022Z,43.90
2024-02-02T03:05:00.309Z,42.50
2024-02-02T03:07:28.417Z,43.60
2024-02-02T03:09:56.656Z,39.60
2024-02-02T03:12:24.841Z,36.70
2024-02-02T03:14:53.173Z,37.60
2024-02-02T03:17:21.290Z,37.40
2024-02-02T03:19:49.440Z,34.00
2024-02-02T03:22:17.434Z,36.50
2024-02-02T03:24:45.630Z,32.00
2024-02-02T03:27:13.765Z,36.50
2024-02-02T03:29:41.981Z,34.90
2024-02-02T03:32:10.134Z,32.80
2024-02-02T03:34:38.719Z,38.30
2024-02-02T03:37:07.195Z,31.30
2024-02-02T03:39:35.780Z,34.40
2024-02-02T03:42:05.647Z,30.10
2024-02-02T03:44:33.790Z,32.60
2024-02-02T03:47:02.136Z,30.90
2024-02-02T03:49:30.469Z,24.00
2024-02-02T03:51:58.666Z,21.00
2024-02-02T03:54:26.933Z,26.10
2024-02-02T03:56:55.796Z,23.20
2024-02-02T03:59:24.071Z,23.60
2024-02-02T04:01:52.561Z,25.40
2024-02-02T04:04:20.808Z,26.80
2024-02-02T04:06:49.023Z,24.10
2024-02-02T04:09:17.107Z,27.40
2024-02-02T04:11:45.309Z,25.90
2024-02-02T04:17:39.005Z,28.60
2024-02-02T04:20:07.966Z,27.90
2024-02-02T04:22:36.147Z,26.50
2024-02-02T04:25:04.614Z,28.10
2024-02-02T04:27:32.725Z,28.60
2024-02-02T04:30:00.930Z,29.40
2024-02-02T04:32:29.376Z,32.40
2024-02-02T04:34:57.476Z,28.00
2024-02-02T04:37:26.486Z,27.00
2024-02-02T04:39:54.741Z,31.50
2024-02-02T04:42:22.906Z,28.50
2024-02-02T04:44:51.177Z,27.60
2024-02-02T04:47:19.335Z,32.00
2024-02-02T04:49:47.615Z,29.80
2024-02-02T04:52:15.985Z,30.60
2024-02-02T04:54:44.194Z,29.70
2024-02-02T04:57:12.419Z,31.80
2024-02-02T04:59:40.710Z,27.60
2024-02-02T05:02:09.039Z,28.30
2024-02-02T05:04:37.436Z,26.00
2024-02-02T05:07:05.665Z,26.00
2024-02-02T05:09:33.820Z,23.80
2024-02-02T05:12:02.168Z,28.80
2024-02-02T05:14:30.383Z,30.10
2024-02-02T05:16:58.511Z,26.00
2024-02-02T05:19:27.048Z,26.80
2024-02-02T05:21:55.520Z,27.80
2024-02-02T05:24:38.284Z,24.40
2024-02-02T05:27:14.430Z,25.20
2024-02-02T05:29:45.324Z,24.50
2024-02-02T05:32:14.014Z,22.10
2024-02-02T05:34:42.883Z,27.60
2024-02-02T05:37:11.149Z,19.00
2024-02-02T05:39:39.311Z,19.30
2024-02-02T05:42:07.480Z,18.00
2024-02-02T05:44:35.633Z,23.00
2024-02-02T05:47:03.680Z,22.90
2024-02-02T05:49:31.791Z,17.30
2024-02-02T05:52:01.432Z,22.00
2024-02-02T05:54:29.814Z,22.50
2024-02-02T05:56:58.114Z,19.10
2024-02-02T05:59:29.116Z,20.10
2024-02-02T06:01:57.218Z,20.60
2024-02-02T06:04:25.438Z,23.00
2024-02-02T06:06:53.715Z,18.90
2024-02-02T06:09:22.038Z,18.40
2024-02-02T06:11:50.132Z,21.80
2024-02-02T06:14:18.414Z,19.00
2024-02-02T06:16:48.220Z,23.20
2024-02-02T06:19:16.470Z,19.10
2024-02-02T06:21:44.897Z,20.70
2024-02-02T06:24:13.029Z,21.00
2024-02-02T06:26:41.277Z,21.80
2024-02-02T06:29:34.108Z,24.30
2024-02-02T06:32:02.298Z,21.10
2024-02-02T06:34:30.956Z,23.90
2024-02-02T06:36:59.278Z,23.60
2024-02-02T06:39:27.350Z,21.20
2024-02-02T06:41:55.653Z,23.80
2024-02-02T06:44:24.678Z,22.00
2024-02-02T06:46:52.828Z,26.00
2024-02-02T06:49:21.236Z,24.80
2024-02-02T06:51:49.468Z,22.70
2024-02-02T06:54:43.007Z,24.90
2024-02-02T06:57:19.125Z,22.70
2024-02-02T06:59:59.069Z,25.40
2024-02-02T07:02:36.648Z,24.50
2024-02-02T07:05:05.211Z,19.50
2024-02-02T07:07:33.334Z,20.40
2024-02-02T07:10:02.325Z,30.80
2024-02-02T07:12:36.209Z,31.60
2024-02-02T07:15:05.735Z,26.10
2024-02-02T07:17:41.877Z,35.40
2024-02-02T07:20:31.748Z,28.60
2024-02-02T07:23:02.579Z,27.10
2024-02-02T07:25:38.593Z,24.50
2024-02-02T07:28:43.090Z,22.10
2024-02-02T07:31:22.562Z,21.50
2024-02-02T07:33:51.543Z,26.00
2024-02-02T07:36:31.755Z,22.00
2024-02-02T07:38:59.960Z,20.20
2024-02-02T07:41:30.280Z,20.30
2024-02-02T07:44:00.978Z,22.40
2024-02-02T07:46:30.142Z,24.40
2024-02-02T07:48:58.718Z,18.80
2024-02-02T07:51:46.186Z,19.00
2024-02-02T07:56:42.541Z,19.90
2024-02-02T07:59:10.630Z,21.60
2024-02-02T08:01:39.179Z,28.10
2024-02-02T08:04:07.290Z,20.20
2024-02-02T08:06:35.650Z,22.40
2024-02-02T08:09:04.078Z,27.30
2024-02-02T08:11:36.932Z,22.80
2024-02-02T08:14:05.227Z,21.00
2024-02-02T08:16:33.382Z,22.60
2024-02-02T08:19:01.593Z,31.60
2024-02-02T08:21:30.024Z,24.50
2024-02-02T08:23:59.761Z,24.60
2024-02-02T08:26:28.279Z,26.60
2024-02-02T08:28:56.314Z,21.00
2024-02-02T08:31:25.069Z,22.30
2024-02-02T08:33:53.465Z,21.40
2024-02-02T08:39:47.241Z,26.50
2024-02-02T08:42:25.225Z,28.30
2024-02-02T08:44:54.995Z,20.40
2024-02-02T08:47:25.116Z,23.90
2024-02-02T08:49:57.563Z,24.00
2024-02-02T08:52:34.410Z,20.20
2024-02-02T08:55:08.056Z,26.10
2024-02-02T08:57:36.406Z,22.80
2024-02-02T09:00:17.321Z,22.20
2024-02-02T09:03:02.191Z,28.60
2024-02-02T09:05:55.145Z,23.50
2024-02-02T09:08:23.372Z,24.40
2024-02-02T09:11:00.837Z,24.40
2024-02-02T09:13:35.684Z,26.50
2024-02-02T09:16:05.344Z,18.40
2024-02-02T09:18:34.999Z,22.40
2024-02-02T09:21:05.265Z,20.90
2024-02-02T09:23:34.458Z,19.30
2024-02-02T09:26:17.728Z,18.40
2024-02-02T09:28:47.179Z,14.70
2024-02-02T09:31:25.017Z,22.50
2024-02-02T09:33:56.485Z,22.10
2024-02-02T09:36:27.902Z,23.20
2024-02-02T09:39:01.701Z,22.00
2024-02-02T09:41:35.869Z,15.50
2024-02-02T09:44:42.155Z,20.80
2024-02-02T09:47:27.906Z,20.40
2024-02-02T09:50:20.751Z,19.10
2024-02-02T09:53:07.731Z,20.10
2024-02-02T09:55:38.863Z,15.60
2024-02-02T09:58:36.762Z,19.90
2024-02-02T10:01:21.310Z,22.10
2024-02-02T10:04:22.445Z,20.90
2024-02-02T10:07:10.501Z,17.50
2024-02-02T10:10:03.331Z,24.90
2024-02-02T10:13:18.260Z,22.30
2024-02-02T10:16:06.208Z,19.30
2024-02-02T10:18:47.352Z,21.30
2024-02-02T10:21:34.789Z,14.20
2024-02-02T10:24:33.411Z,19.20
2024-02-02T10:27:41.739Z,17.70
2024-02-02T10:30:10.619Z,22.20
2024-02-02T10:33:07.499Z,18.50
2024-02-02T10:36:09.150Z,16.20
2024-02-02T10:39:12.101Z,17.30
2024-02-02T10:41:58.033Z,14.60
2024-02-02T10:44:54.273Z,13.20
2024-02-02T10:47:39.141Z,12.90
2024-02-02T10:50:26.785Z,15.40
2024-02-02T10:53:03.961Z,19.60
2024-02-02T10:55:38.166Z,17.70
2024-02-02T10:58:16.712Z,13.30
2024-02-02T11:00:56.534Z,20.00
2024-02-02T11:03:40.658Z,15.60
2024-02-02T11:06:33.029Z,20.90
2024-02-02T11:09:36.668Z,13.90
2024-02-02T11:12:43.460Z,13.30
2024-02-02T11:15:17.632Z,17.70
2024-02-02T11:18:03.231Z,10.40
2024-02-02T11:20:37.338Z,16.60
2024-02-02T11:23:27.577Z,14.70
2024-02-02T11:26:36.278Z,15.20
2024-02-02T11:29:45.679Z,15.80
2024-02-02T11:32:40.595Z,17.60
2024-02-02T11:35:21.805Z,15.50
2024-02-02T11:37:55.997Z,12.50
2024-02-02T11:40:26.618Z,17.00
2024-02-02T11:42:58.188Z,16.00
2024-02-02T11:45:34.912Z,14.70
2024-02-02T11:48:05.902Z,13.90
2024-02-02T11:50:53.741Z,15.10
2024-02-02T11:53:37.280Z,15.80
2024-02-02T11:56:11.578Z,18.60
2024-02-02T11:58:44.548Z,15.80
2024-02-02T12:01:18.320Z,18.90
2024-02-02T12:04:10.743Z,15.80
2024-02-02T12:07:16.630Z,16.20
2024-02-02T12:09:49.643Z,20.10
2024-02-02T12:12:33.123Z,18.00
2024-02-02T12:15:04.483Z,19.00
2024-02-02T12:17:32.873Z,20.60
2024-02-02T12:20:33.432Z,22.00
2024-02-02T12:23:02.038Z,19.60
2024-02-02T12:25:30.874Z,20.40
2024-02-02T12:27:59.009Z,33.00
2024-02-02T12:30:27.389Z,26.70
2024-02-02T12:33:00.193Z,25.00
2024-02-02T12:35:32.167Z,25.90
2024-02-02T12:38:05.354Z,26.20
2024-02-02T12:40:34.402Z,30.00
2024-02-02T12:43:03.599Z,29.20
2024-02-02T12:45:37.436Z,23.80
2024-02-02T12:48:11.921Z,26.20
2024-02-02T12:50:40.187Z,28.10
2024-02-02T12:53:09.115Z,24.90
2024-02-02T12:55:37.536Z,24.40
2024-02-02T12:58:05.864Z,21.70
2024-02-02T13:00:34.231Z,26.50
2024-02-02T13:03:06.316Z,25.60
2024-02-02T13:05:38.778Z,35.90
2024-02-02T13:08:09.624Z,32.10
2024-02-02T13:10:37.893Z,18.30
2024-02-02T13:13:22.344Z,21.30
2024-02-02T13:15:50.642Z,22.00
2024-02-02T13:18:24.030Z,23.60
2024-02-02T13:20:55.580Z,24.30
2024-02-02T13:23:26.392Z,20.70
2024-02-02T13:26:02.199Z,25.20
2024-02-02T13:28:42.610Z,22.10
2024-02-02T13:31:14.591Z,22.80
2024-02-02T13:34:06.069Z,22.80
2024-02-02T13:36:40.777Z,24.40
2024-02-02T13:39:19.737Z,21.10
2024-02-02T13:41:49.166Z,22.60
2024-02-02T13:44:24.056Z,26.10
2024-02-02T13:46:53.938Z,33.30
2024-02-02T13:50:20.144Z,33.00
2024-02-02T13:52:41.185Z,27.10
2024-02-02T13:55:09.572Z,26.80
2024-02-02T13:57:38.604Z,26.10
2024-02-02T14:00:08.820Z,28.90
2024-02-02T14:02:36.945Z,28.00
2024-02-02T14:05:08.968Z,29.10
2024-02-02T14:07:39.514Z,26.90
2024-02-02T14:10:10.110Z,26.60
2024-02-02T14:12:44.910Z,31.10
2024-02-02T14:15:15.085Z,29.40
2024-02-02T14:17:43.637Z,31.50
2024-02-02T14:20:20.211Z,30.10
2024-02-02T14:25:32.712Z,25.20
2024-02-02T14:28:00.813Z,26.20
2024-02-02T14:30:29.652Z,25.70
2024-02-02T14:33:09.123Z,27.90
2024-02-02T14:35:47.740Z,29.80
2024-02-02T14:38:18.281Z,26.60
2024-02-02T14:40:49.609Z,28.10
2024-02-02T14:43:17.847Z,25.00
2024-02-02T14:45:51.118Z,26.90
2024-02-02T14:48:20.760Z,26.00
2024-02-02T14:50:57.936Z,26.20
2024-02-02T14:53:28.084Z,24.30
2024-02-02T14:55:57.286Z,26.90
2024-02-02T14:58:26.458Z,24.50
2024-02-02T15:00:55.694Z,26.80
2024-02-02T15:03:25.182Z,33.90
2024-02-02T15:06:00.507Z,30.00
2024-02-02T15:08:28.883Z,27.00
2024-02-02T15:11:00.586Z,29.90
2024-02-02T15:13:29.023Z,30.10
2024-02-02T15:15:57.163Z,29.80
2024-02-02T15:18:33.172Z,29.80
2024-02-02T15:21:05.551Z,28.60
2024-02-02T15:23:36.940Z,30.90
2024-02-02T15:26:05.125Z,29.90
2024-02-02T15:28:39.792Z,31.80
2024-02-02T15:31:08.601Z,30.70
2024-02-02T15:33:38.114Z,34.50
2024-02-02T15:36:06.463Z,62.00
2024-02-02T15:38:34.895Z,65.50
2024-02-02T15:41:10.285Z,33.00
2024-02-02T15:43:41.294Z,35.00
2024-02-02T15:46:25.309Z,29.80
2024-02-02T15:49:14.446Z,31.40
2024-02-02T15:51:43.301Z,26.30
2024-02-02T15:54:11.491Z,25.80
2024-02-02T15:56:40.558Z,25.90
2024-02-02T15:59:08.791Z,31.60
2024-02-02T16:01:37.409Z,23.60
2024-02-02T16:04:08.792Z,25.70
2024-02-02T16:06:36.928Z,32.00
2024-02-02T16:09:07.337Z,26.00
2024-02-02T16:11:36.974Z,27.50
2024-02-02T16:14:05.060Z,23.80
2024-02-02T16:16:33.193Z,24.00
2024-02-02T16:19:01.414Z,19.90
2024-02-02T16:21:29.639Z,23.10
2024-02-02T16:23:57.879Z,20.30
2024-02-02T16:26:26.078Z,27.70
2024-02-02T16:28:54.211Z,22.50
2024-02-02T16:31:27.339Z,27.70
2024-02-02T16:33:55.646Z,20.60
2024-02-02T16:36:29.156Z,21.30
2024-02-02T16:39:00.445Z,22.80
2024-02-02T16:41:37.891Z,19.90
2024-02-02T16:44:07.372Z,18.00
2024-02-02T16:46:43.301Z,20.30
2024-02-02T16:49:18.829Z,21.70
2024-02-02T16:51:51.853Z,19.50
2024-02-02T16:54:51.709Z,24.90
2024-02-02T16:57:30.634Z,21.60
2024-02-02T16:59:59.064Z,24.20
2024-02-02T17:05:56.193Z,30.80
2024-02-02T17:08:27.204Z,27.20
2024-02-02T17:10:59.766Z,35.90
2024-02-02T17:13:27.880Z,34.50
2024-02-02T17:15:56.897Z,33.10
2024-02-02T17:18:25.241Z,30.80
2024-02-02T17:21:11.110Z,27.00
2024-02-02T17:23:40.411Z,21.60
2024-02-02T17:26:18.418Z,24.60
2024-02-02T17:28:50.444Z,25.50
2024-02-02T17:31:20.657Z,23.00
2024-02-02T17:33:48.710Z,23.30
2024-02-02T17:36:18.101Z,26.20
2024-02-02T17:38:53.773Z,26.20
2024-02-02T17:41:25.897Z,26.80
2024-02-02T17:43:57.917Z,24.90
2024-02-02T17:46:28.933Z,28.00
2024-02-02T17:48:59.521Z,29.20
2024-02-02T17:51:30.541Z,29.40
2024-02-02T17:54:01.922Z,28.40
2024-02-02T17:56:35.258Z,29.00
2024-02-02T17:59:06.273Z,27.60
2024-02-02T18:01:37.592Z,31.10
2024-02-02T18:04:08.664Z,25.60
2024-02-02T18:06:40.136Z,26.90
2024-02-02T18:09:10.399Z,24.70
2024-02-02T18:11:44.296Z,23.20
2024-02-02T18:14:15.171Z,25.60
2024-02-02T18:16:43.398Z,23.40
2024-02-02T18:19:14.153Z,21.00
2024-02-02T18:21:42.534Z,20.50
2024-02-02T18:24:18.742Z,25.20
2024-02-02T18:26:46.861Z,22.80
2024-02-02T18:29:18.066Z,23.80
2024-02-02T18:31:47.084Z,26.10
2024-02-02T18:34:15.276Z,26.90
2024-02-02T18:36:50.679Z,26.90
2024-02-02T18:39:38.488Z,26.30
2024-02-02T18:42:10.822Z,22.80
2024-02-02T18:44:39.335Z,26.10
2024-02-02T18:47:08.709Z,22.40
2024-02-02T18:49:38.452Z,22.60
2024-02-02T18:52:07.342Z,19.60
2024-02-02T18:54:37.947Z,23.30
2024-02-02T18:57:07.070Z,23.80
2024-02-02T18:59:38.452Z,21.80
2024-02-02T19:02:06.677Z,22.90
2024-02-02T19:04:35.740Z,25.40
2024-02-02T19:07:06.267Z,39.90
2024-02-02T19:09:34.774Z,24.80
2024-02-02T19:12:03.270Z,25.10
2024-02-02T19:14:31.280Z,23.00
2024-02-02T19:17:00.092Z,23.00
2024-02-02T19:19:28.396Z,22.00
2024-02-02T19:21:56.590Z,20.80
2024-02-02T19:24:27.187Z,24.10
2024-02-02T19:26:56.229Z,21.10
2024-02-02T19:29:24.350Z,24.30
2024-02-02T19:31:52.359Z,22.80
2024-02-02T19:34:20.558Z,20.70
2024-02-02T19:36:48.872Z,19.60
2024-02-02T19:39:17.261Z,24.40
2024-02-02T19:41:45.388Z,26.80
2024-02-02T19:44:13.583Z,31.90
2024-02-02T19:46:44.502Z,30.80
2024-02-02T19:49:12.755Z,31.90
2024-02-02T19:51:41.115Z,35.20
2024-02-02T19:54:10.021Z,27.70
2024-02-02T19:56:38.132Z,31.40
2024-02-02T19:59:06.321Z,26.00
2024-02-02T20:01:38.768Z,26.90
2024-02-02T20:04:07.728Z,45.40
2024-02-02T20:06:38.556Z,29.30
2024-02-02T20:09:07.579Z,30.70
2024-02-02T20:11:35.817Z,34.40
2024-02-02T20:14:03.904Z,38.00
2024-02-02T20:16:31.993Z,35.20
2024-02-02T20:19:00.180Z,34.70
2024-02-02T20:21:29.548Z,39.80
2024-02-02T20:24:00.136Z,34.00
2024-02-02T20:26:28.283Z,32.90
2024-02-02T20:28:56.457Z,36.60
2024-02-02T20:31:27.733Z,34.40
2024-02-02T20:33:57.896Z,44.40
2024-02-02T20:36:31.745Z,41.80
2024-02-02T20:39:00.062Z,49.40
2024-02-02T20:41:28.389Z,44.30
2024-02-02T20:43:58.610Z,46.40
2024-02-02T20:46:27.143Z,52.00
2024-02-02T20:48:55.517Z,56.40
2024-02-02T20:51:23.729Z,56.20
2024-02-02T20:53:52.277Z,56.80
2024-02-02T20:56:20.396Z,57.20
2024-02-02T20:58:50.661Z,50.30
2024-02-02T21:01:18.758Z,54.40
2024-02-02T21:03:47.006Z,53.60
2024-02-02T21:09:28.496Z,49.00
2024-02-02T21:11:56.776Z,47.50
2024-02-02T21:14:24.957Z,50.80
2024-02-02T21:16:53.175Z,48.40
2024-02-02T21:19:21.397Z,45.10
2024-02-02T21:21:50.134Z,39.90
2024-02-02T21:24:18.714Z,39.50
2024-02-02T21:26:48.298Z,36.70
2024-02-02T21:29:21.530Z,33.60
2024-02-02T21:31:50.274Z,36.90
2024-02-02T21:34:26.104Z,41.20
2024-02-02T21:36:54.329Z,31.80
2024-02-02T21:39:25.052Z,37.60
2024-02-02T21:41:53.727Z,39.10
2024-02-02T21:44:26.979Z,41.70
2024-02-02T21:46:55.089Z,39.70
2024-02-02T21:49:30.918Z,37.30
2024-02-02T21:52:06.363Z,32.50
2024-02-02T21:54:41.148Z,33.30
2024-02-02T21:57:10.575Z,31.50
2024-02-02T21:59:43.704Z,32.70
2024-02-02T22:02:18.052Z,33.30
2024-02-02T22:04:53.895Z,37.60
2024-02-02T22:07:31.167Z,30.70
2024-02-02T22:10:02.024Z,31.90
2024-02-02T22:12:32.719Z,28.30
2024-02-02T22:15:11.173Z,36.60
2024-02-02T22:17:42.180Z,30.90
2024-02-02T22:20:14.582Z,39.10
2024-02-02T22:22:58.075Z,49.30
2024-02-02T22:25:26.281Z,46.50
2024-02-02T22:27:59.960Z,36.00
2024-02-02T22:30:34.023Z,33.10
2024-02-02T22:33:03.848Z,35.10
2024-02-02T22:35:40.800Z,36.10
2024-02-02T22:38:09.023Z,38.00
2024-02-02T22:40:37.247Z,37.70
2024-02-02T22:43:09.900Z,33.40
2024-02-02T22:45:38.124Z,37.30
2024-02-02T22:48:06.587Z,34.80
2024-02-02T22:50:39.600Z,39.10
2024-02-02T22:53:18.148Z,36.80
2024-02-02T22:55:48.660Z,36.90
2024-02-02T22:58:17.352Z,35.00
2024-02-02T23:00:49.419Z,36.80
2024-02-02T23:03:20.305Z,34.60
2024-02-02T23:05:54.757Z,32.40
2024-02-02T23:08:25.874Z,30.60
2024-02-02T23:10:59.225Z,32.50
2024-02-02T23:13:29.178Z,28.80
2024-02-02T23:16:00.734Z,27.00
2024-02-02T23:18:31.744Z,24.40
2024-02-02T23:21:01.139Z,26.20
2024-02-02T23:23:30.343Z,19.40
2024-02-02T23:26:06.155Z,17.90
2024-02-02T23:28:40.061Z,24.80
2024-02-02T23:31:12.240Z,19.90
2024-02-02T23:33:42.293Z,22.80
2024-02-02T23:36:14.207Z,21.70
2024-02-02T23:38:45.176Z,21.20
2024-02-02T23:41:17.050Z,19.40
2024-02-02T23:43:46.097Z,22.10
2024-02-02T23:46:18.984Z,19.00
2024-02-02T23:48:50.697Z,19.70
2024-02-02T23:51:44.288Z,17.20
2024-02-02T23:54:13.947Z,19.50
2024-02-02T23:56:42.522Z,21.40
2024-02-02T23:59:13.406Z,24.40
